Time;durP1;ratioP1;P1;durP2;ratioP2;P2;SDS_P1;SDS_P2;PMS_P1;PMS_P2;Temp;Humidity;BMP_temperature;BMP_pressure;BME280_temperature;BME280_humidity;BME280_pressure;Samples;Min_cycle;Max_cycle;Signal;HPM_P1;HPM_P2
2023/11/25 00:00:10;;;;;;;5.90;1.10;;;1.00;99.90;;;;;;4979888;28;20182;-93
2023/11/25 00:02:36;;;;;;;6.03;1.20;;;1.00;99.90;;;;;;4981699;28;20030;-93
2023/11/25 00:05:01;;;;;;;2.70;0.85;;;1.00;99.90;;;;;;4980254;28;20121;-92
2023/11/25 00:07:29;;;;;;;10.10;1.15;;;1.10;99.90;;;;;;4981589;28;20073;-94
2023/11/25 00:09:55;;;;;;;10.48;1.58;;;1.10;99.90;;;;;;4984771;28;20034;-94
2023/11/25 00:12:21;;;;;;;8.75;3.13;;;1.10;99.90;;;;;;4986814;28;20029;-93
2023/11/25 00:14:46;;;;;;;4.43;1.77;;;1.20;99.90;;;;;;4987882;28;20034;-92
2023/11/25 00:17:12;;;;;;;9.85;1.38;;;1.20;99.90;;;;;;4985367;28;20041;-93
2023/11/25 00:19:38;;;;;;;5.65;1.40;;;1.20;99.90;;;;;;4985791;28;20503;-93
2023/11/25 00:22:05;;;;;;;16.88;3.42;;;1.20;99.90;;;;;;4981882;28;20026;-94
2023/11/25 00:24:31;;;;;;;9.35;1.60;;;1.10;99.90;;;;;;4979737;28;20022;-95
2023/11/25 00:26:57;;;;;;;7.97;1.83;;;1.10;99.90;;;;;;4979490;28;20030;-93
2023/11/25 00:29:23;;;;;;;7.25;3.15;;;1.00;99.90;;;;;;4978553;28;20026;-93
2023/11/25 00:31:54;;;;;;;10.65;2.53;;;1.10;99.90;;;;;;4978454;28;20038;-94
2023/11/25 00:34:27;;;;;;;9.40;1.48;;;1.10;99.90;;;;;;4978634;28;20121;-94
2023/11/25 00:36:52;;;;;;;10.02;1.42;;;1.20;99.90;;;;;;4979023;28;20117;-94
2023/11/25 00:39:19;;;;;;;6.30;1.33;;;1.10;99.90;;;;;;4992093;28;20037;-93
2023/11/25 00:41:46;;;;;;;9.73;1.70;;;1.10;99.90;;;;;;4981328;28;20107;-95
2023/11/25 00:44:12;;;;;;;9.32;1.67;;;1.00;99.90;;;;;;4980451;28;20023;-95
2023/11/25 00:46:38;;;;;;;5.75;1.17;;;1.00;99.90;;;;;;4986133;28;20126;-94
2023/11/25 00:49:05;;;;;;;4.90;1.40;;;1.00;99.90;;;;;;4984362;28;20028;-94
2023/11/25 00:51:31;;;;;;;22.77;4.68;;;0.90;99.90;;;;;;4979140;28;20037;-95
2023/11/25 00:53:57;;;;;;;8.15;2.00;;;0.80;99.90;;;;;;4977743;28;20035;-95
2023/11/25 00:56:23;;;;;;;9.45;1.77;;;0.70;99.90;;;;;;5010543;28;20484;-94
2023/11/25 00:58:49;;;;;;;9.35;2.03;;;0.70;99.90;;;;;;4978802;28;20038;-95
2023/11/25 01:01:15;;;;;;;14.32;3.40;;;0.60;99.90;;;;;;4977530;28;20042;-94
2023/11/25 01:03:41;;;;;;;5.28;1.70;;;0.50;99.90;;;;;;4977952;28;20081;-94
2023/11/25 01:06:07;;;;;;;10.00;2.42;;;0.50;99.90;;;;;;4977760;28;20030;-95
2023/11/25 01:08:34;;;;;;;11.65;1.85;;;0.50;99.90;;;;;;4977694;28;20054;-94
2023/11/25 01:10:59;;;;;;;15.65;2.58;;;0.50;99.90;;;;;;4978165;28;20113;-96
2023/11/25 01:13:25;;;;;;;11.38;2.80;;;0.40;99.90;;;;;;4977978;28;20109;-96
2023/11/25 01:15:51;;;;;;;11.13;2.55;;;0.40;99.90;;;;;;4977609;28;20061;-95
2023/11/25 01:18:18;;;;;;;11.68;2.75;;;0.40;99.90;;;;;;4977643;28;20029;-94
2023/11/25 01:20:44;;;;;;;13.05;1.63;;;0.40;99.90;;;;;;5010996;28;20033;-93
2023/11/25 01:23:10;;;;;;;6.15;1.45;;;0.30;99.90;;;;;;4978599;28;20039;-96
2023/11/25 01:25:36;;;;;;;9.48;1.60;;;0.30;99.90;;;;;;4978050;28;20121;-94
2023/11/25 01:28:03;;;;;;;7.78;2.10;;;0.40;99.90;;;;;;5010847;28;20069;-95
2023/11/25 01:30:30;;;;;;;9.85;1.67;;;0.30;99.90;;;;;;4977256;28;20493;-95
2023/11/25 01:32:58;;;;;;;13.65;1.90;;;0.30;99.90;;;;;;4977288;28;20093;-95
2023/11/25 01:35:25;;;;;;;8.40;1.83;;;0.30;99.90;;;;;;4980016;28;20041;-93
2023/11/25 01:37:51;;;;;;;8.93;1.60;;;0.30;99.90;;;;;;4984569;28;20199;-94
2023/11/25 01:40:17;;;;;;;6.53;1.77;;;0.30;99.90;;;;;;4978974;28;20159;-93
2023/11/25 01:42:43;;;;;;;17.48;3.00;;;0.20;99.90;;;;;;4979921;28;20108;-95
2023/11/25 01:45:10;;;;;;;8.63;2.30;;;0.20;99.90;;;;;;4980637;28;20030;-94
2023/11/25 01:47:36;;;;;;;16.23;3.38;;;0.20;99.90;;;;;;5013676;28;20038;-95
2023/11/25 01:50:05;;;;;;;27.80;6.10;;;0.20;99.90;;;;;;4980497;28;20026;-94
2023/11/25 01:52:32;;;;;;;22.05;5.20;;;0.10;99.90;;;;;;4979614;28;20396;-95
2023/11/25 01:55:01;;;;;;;14.25;2.88;;;0.10;99.90;;;;;;4978537;28;20038;-94
2023/11/25 01:57:30;;;;;;;10.63;2.38;;;0.10;99.90;;;;;;5011415;28;20018;-93
2023/11/25 01:59:57;;;;;;;14.60;2.85;;;0.00;99.90;;;;;;4978411;28;20026;-94
2023/11/25 02:02:28;;;;;;;9.13;3.00;;;0.00;99.90;;;;;;4979541;28;20102;-93
2023/11/25 02:04:55;;;;;;;12.07;2.35;;;0.00;99.90;;;;;;4985899;28;20041;-95
2023/11/25 02:07:21;;;;;;;10.70;2.45;;;0.00;99.90;;;;;;4978911;28;20027;-93
2023/11/25 02:09:47;;;;;;;15.57;2.33;;;-0.10;99.90;;;;;;4982007;28;20037;-93
2023/11/25 02:12:13;;;;;;;11.18;2.17;;;0.00;99.90;;;;;;4985315;28;20373;-94
2023/11/25 02:14:39;;;;;;;9.52;1.75;;;-0.10;99.90;;;;;;4978642;28;20097;-95
2023/11/25 02:17:05;;;;;;;9.02;1.88;;;-0.10;99.90;;;;;;4978690;28;20043;-94
2023/11/25 02:19:31;;;;;;;13.82;1.83;;;-0.10;99.90;;;;;;5006325;28;20080;-95
2023/11/25 02:21:58;;;;;;;8.73;2.22;;;-0.10;99.90;;;;;;5006913;28;20457;-94
2023/11/25 02:24:26;;;;;;;13.65;2.20;;;-0.10;99.90;;;;;;4999295;28;20092;-94
2023/11/25 02:27:03;;;;;;;12.88;1.90;;;-0.10;99.90;;;;;;4996877;28;20033;-93
2023/11/25 02:29:31;;;;;;;11.00;1.88;;;-0.10;99.90;;;;;;4996520;28;20033;-94
2023/11/25 02:31:58;;;;;;;11.60;2.38;;;-0.10;99.90;;;;;;4996432;28;20183;-93
2023/11/25 02:34:24;;;;;;;8.98;1.80;;;-0.10;99.90;;;;;;4996482;28;20037;-94
2023/11/25 02:36:51;;;;;;;11.40;1.73;;;-0.10;99.90;;;;;;4996838;28;20129;-92
2023/11/25 02:39:18;;;;;;;8.23;1.42;;;-0.10;99.90;;;;;;4995977;28;20033;-94
2023/11/25 02:41:50;;;;;;;8.65;1.42;;;-0.10;99.90;;;;;;4995606;28;20037;-93
2023/11/25 02:44:19;;;;;;;12.10;2.13;;;-0.10;99.90;;;;;;4997380;28;20372;-92
2023/11/25 02:46:49;;;;;;;11.40;1.73;;;-0.10;99.90;;;;;;4999592;28;20032;-92
2023/11/25 02:49:15;;;;;;;2.72;1.00;;;-0.10;99.90;;;;;;5000505;28;20018;-94
2023/11/25 02:51:48;;;;;;;8.80;1.77;;;-0.10;99.90;;;;;;4999906;28;20505;-93
2023/11/25 02:54:14;;;;;;;6.68;1.40;;;-0.10;99.90;;;;;;4984340;28;20049;-94
2023/11/25 02:56:40;;;;;;;6.93;1.67;;;-0.10;99.90;;;;;;4983969;28;20050;-92
2023/11/25 02:59:07;;;;;;;8.27;1.42;;;-0.10;99.90;;;;;;4983991;28;20033;-93
2023/11/25 03:01:33;;;;;;;6.82;1.10;;;-0.10;99.90;;;;;;4980679;28;20121;-94
2023/11/25 03:04:04;;;;;;;9.05;1.60;;;-0.10;99.90;;;;;;4980387;28;20065;-94
2023/11/25 03:06:30;;;;;;;14.73;1.63;;;-0.10;99.90;;;;;;4979961;28;20030;-94
2023/11/25 03:08:57;;;;;;;7.50;1.48;;;-0.20;99.90;;;;;;4979940;28;20045;-91
2023/11/25 03:11:23;;;;;;;4.85;1.30;;;-0.20;99.90;;;;;;4979697;28;20070;-93
2023/11/25 03:13:49;;;;;;;10.10;1.40;;;-0.20;99.90;;;;;;4979204;28;20042;-93
2023/11/25 03:16:16;;;;;;;7.20;1.40;;;-0.20;99.90;;;;;;4979117;28;20051;-94
2023/11/25 03:18:41;;;;;;;13.18;1.40;;;-0.20;99.90;;;;;;4979287;28;20073;-93
2023/11/25 03:21:09;;;;;;;4.68;1.63;;;-0.20;99.90;;;;;;4979931;28;20031;-92
2023/11/25 03:23:36;;;;;;;8.20;1.77;;;-0.20;99.90;;;;;;4979876;28;20026;-92
2023/11/25 03:26:05;;;;;;;5.28;1.52;;;-0.20;99.90;;;;;;4980556;28;20027;-94
2023/11/25 03:28:33;;;;;;;8.93;1.90;;;-0.20;99.90;;;;;;4988676;28;20035;-90
2023/11/25 03:31:04;;;;;;;7.03;1.00;;;-0.10;99.90;;;;;;4987483;28;20505;-92
2023/11/25 03:33:30;;;;;;;9.88;1.55;;;-0.10;99.90;;;;;;4980420;28;20052;-92
2023/11/25 03:35:56;;;;;;;6.00;1.20;;;-0.20;99.90;;;;;;4987078;28;20038;-93
2023/11/25 03:38:22;;;;;;;6.93;1.48;;;-0.10;99.90;;;;;;4990902;28;20076;-93
2023/11/25 03:40:48;;;;;;;12.02;1.30;;;-0.20;99.90;;;;;;4998989;28;20033;-91
2023/11/25 03:43:14;;;;;;;6.38;1.17;;;-0.20;99.90;;;;;;5012606;28;20030;-93
2023/11/25 03:45:44;;;;;;;10.48;1.38;;;-0.20;99.90;;;;;;5008251;28;20045;-93
2023/11/25 03:48:10;;;;;;;8.68;1.75;;;-0.20;99.90;;;;;;4986242;28;20516;-93
2023/11/25 03:50:37;;;;;;;6.90;1.40;;;-0.20;99.90;;;;;;5002682;28;20057;-94
2023/11/25 03:53:03;;;;;;;5.57;1.30;;;-0.20;99.90;;;;;;4989313;28;20034;-93
2023/11/25 03:55:28;;;;;;;8.55;1.58;;;-0.20;99.90;;;;;;4991549;28;20042;-91
2023/11/25 03:57:54;;;;;;;4.30;1.23;;;-0.20;99.90;;;;;;4998000;28;20026;-93
2023/11/25 04:00:22;;;;;;;10.50;1.33;;;-0.20;99.90;;;;;;4996675;28;20069;-92
2023/11/25 04:02:48;;;;;;;9.27;1.33;;;-0.20;99.90;;;;;;4996134;28;20074;-92
2023/11/25 04:05:16;;;;;;;7.80;1.60;;;-0.30;99.90;;;;;;4997744;28;20034;-93
2023/11/25 04:07:42;;;;;;;7.82;1.38;;;-0.30;99.90;;;;;;4994471;28;20030;-94
2023/11/25 04:10:14;;;;;;;9.85;1.60;;;-0.30;99.90;;;;;;4993171;28;20049;-92
2023/11/25 04:12:43;;;;;;;3.60;1.30;;;-0.30;99.90;;;;;;5009095;28;20062;-92
2023/11/25 04:15:10;;;;;;;7.85;1.30;;;-0.30;99.90;;;;;;5012063;28;20038;-92
2023/11/25 04:17:38;;;;;;;4.55;1.13;;;-0.30;99.90;;;;;;5017499;28;20023;-89
2023/11/25 04:20:13;;;;;;;7.32;1.58;;;-0.40;99.90;;;;;;4999256;28;20033;-91
2023/11/25 04:22:43;;;;;;;6.55;1.20;;;-0.40;99.90;;;;;;5014346;28;20027;-91
2023/11/25 04:25:11;;;;;;;10.50;1.83;;;-0.40;99.90;;;;;;4996542;28;20033;-91
2023/11/25 04:27:48;;;;;;;6.95;1.48;;;-0.30;99.90;;;;;;4998433;28;20082;-92
2023/11/25 04:30:18;;;;;;;9.55;1.83;;;-0.30;99.90;;;;;;5016057;28;20030;-92
2023/11/25 04:32:45;;;;;;;9.48;1.33;;;-0.30;99.90;;;;;;5000682;28;20014;-94
2023/11/25 04:35:13;;;;;;;8.18;1.23;;;-0.40;99.90;;;;;;5000508;28;20042;-89
2023/11/25 04:37:43;;;;;;;7.28;1.30;;;-0.40;99.90;;;;;;5015644;28;20031;-92
2023/11/25 04:40:11;;;;;;;3.70;0.98;;;-0.50;99.90;;;;;;5004086;28;20069;-93
2023/11/25 04:42:38;;;;;;;7.07;1.52;;;-0.50;99.90;;;;;;5006211;28;20045;-93
2023/11/25 04:45:04;;;;;;;3.97;1.05;;;-0.50;99.90;;;;;;5023160;28;20022;-93
2023/11/25 04:47:30;;;;;;;12.93;1.90;;;-0.60;99.90;;;;;;5003017;28;20462;-91
2023/11/25 04:49:55;;;;;;;4.38;1.08;;;-0.60;99.90;;;;;;5003809;28;20073;-93
2023/11/25 04:52:21;;;;;;;9.07;1.40;;;-0.50;99.90;;;;;;5009727;28;20029;-92
2023/11/25 04:54:48;;;;;;;15.95;1.92;;;-0.50;99.90;;;;;;4978241;28;20074;-92
2023/11/25 04:57:14;;;;;;;8.70;1.15;;;-0.50;99.90;;;;;;4968742;28;20397;-92
2023/11/25 04:59:40;;;;;;;5.32;1.40;;;-0.50;99.90;;;;;;4969699;28;20109;-92
2023/11/25 05:02:06;;;;;;;6.00;1.25;;;-0.50;99.90;;;;;;4970429;28;20050;-93
2023/11/25 05:04:32;;;;;;;7.18;1.40;;;-0.60;99.90;;;;;;4988603;28;20075;-92
2023/11/25 05:06:58;;;;;;;7.60;1.23;;;-0.60;99.90;;;;;;4970574;28;20022;-92
2023/11/25 05:09:26;;;;;;;5.40;1.08;;;-0.60;99.90;;;;;;4969843;28;20065;-92
2023/11/25 05:11:55;;;;;;;11.45;1.50;;;-0.60;99.90;;;;;;4965966;28;20059;-93
2023/11/25 05:14:20;;;;;;;6.25;1.45;;;-0.60;99.90;;;;;;4962935;28;20057;-92
2023/11/25 05:16:49;;;;;;;6.43;1.40;;;-0.60;99.90;;;;;;4962529;28;20050;-92
2023/11/25 05:19:15;;;;;;;5.40;1.23;;;-0.50;99.90;;;;;;4978209;28;20089;-92
2023/11/25 05:21:41;;;;;;;4.07;1.10;;;-0.60;99.90;;;;;;4994738;28;20022;-93
2023/11/25 05:24:07;;;;;;;9.98;2.03;;;-0.60;99.90;;;;;;4978679;28;20062;-93
2023/11/25 05:26:32;;;;;;;6.22;1.10;;;-0.60;99.90;;;;;;4961611;28;20037;-93
2023/11/25 05:29:00;;;;;;;6.10;1.27;;;-0.50;99.90;;;;;;4960909;28;20030;-93
2023/11/25 05:31:25;;;;;;;5.28;1.50;;;-0.70;99.90;;;;;;4960663;28;20121;-93
2023/11/25 05:33:51;;;;;;;10.02;1.95;;;-0.80;99.90;;;;;;4975781;28;20070;-92
2023/11/25 05:36:17;;;;;;;5.95;2.13;;;-0.80;99.90;;;;;;4975802;28;20035;-93
2023/11/25 05:38:44;;;;;;;3.60;0.80;;;-0.90;99.90;;;;;;4959995;28;20506;-93
2023/11/25 05:41:13;;;;;;;10.85;1.80;;;-0.90;99.90;;;;;;4959854;28;20081;-93
2023/11/25 05:43:40;;;;;;;10.00;1.10;;;-1.00;99.90;;;;;;4975479;28;20023;-93
2023/11/25 05:46:05;;;;;;;5.35;1.25;;;-1.00;99.90;;;;;;4959960;28;20042;-94
2023/11/25 05:48:31;;;;;;;8.45;1.52;;;-1.10;99.90;;;;;;4959363;28;20023;-92
2023/11/25 05:50:57;;;;;;;8.52;1.13;;;-1.10;99.90;;;;;;4959006;28;20037;-92
2023/11/25 05:53:23;;;;;;;12.07;1.50;;;-1.20;99.90;;;;;;4959008;28;20117;-93
2023/11/25 05:55:49;;;;;;;7.43;1.38;;;-1.20;99.90;;;;;;4959415;28;20066;-93
2023/11/25 05:58:15;;;;;;;17.30;2.00;;;-1.20;99.90;;;;;;4959793;28;20109;-94
2023/11/25 06:00:41;;;;;;;8.70;2.08;;;-1.20;99.90;;;;;;4959558;28;20043;-93
2023/11/25 06:03:07;;;;;;;10.88;3.28;;;-1.10;99.90;;;;;;4959280;28;20453;-93
2023/11/25 06:05:33;;;;;;;4.47;2.13;;;-1.20;99.90;;;;;;4959012;28;20050;-93
2023/11/25 06:07:58;;;;;;;8.70;1.38;;;-1.10;99.90;;;;;;4959460;28;20031;-93
2023/11/25 06:10:24;;;;;;;8.98;1.55;;;-1.10;99.90;;;;;;4958756;28;20113;-93
2023/11/25 06:12:50;;;;;;;6.72;1.13;;;-1.20;99.90;;;;;;4974509;28;20445;-92
2023/11/25 06:15:18;;;;;;;5.30;1.38;;;-1.20;99.90;;;;;;4958193;28;20564;-92
2023/11/25 06:17:45;;;;;;;10.25;1.70;;;-1.20;99.90;;;;;;4959187;28;20027;-93
2023/11/25 06:20:11;;;;;;;10.15;1.77;;;-1.20;99.90;;;;;;4959271;28;20031;-93
2023/11/25 06:22:37;;;;;;;5.85;1.30;;;-1.10;99.90;;;;;;4977628;28;20042;-92
2023/11/25 06:25:05;;;;;;;7.07;1.40;;;-1.00;99.90;;;;;;4961162;28;20042;-92
2023/11/25 06:27:30;;;;;;;6.88;1.38;;;-1.00;99.90;;;;;;4958989;28;20023;-94
2023/11/25 06:29:58;;;;;;;4.25;1.40;;;-1.00;99.90;;;;;;4974822;28;20055;-91
2023/11/25 06:32:27;;;;;;;12.68;2.05;;;-1.00;99.90;;;;;;4959238;28;20027;-93
2023/11/25 06:34:53;;;;;;;4.90;1.30;;;-1.00;99.90;;;;;;4960907;28;20533;-92
2023/11/25 06:37:18;;;;;;;6.72;1.80;;;-1.00;99.90;;;;;;4979539;28;20503;-93
2023/11/25 06:39:44;;;;;;;8.55;1.20;;;-1.00;99.90;;;;;;4981010;28;20026;-95
2023/11/25 06:42:10;;;;;;;4.50;1.15;;;-0.90;99.90;;;;;;4977891;28;20433;-94
2023/11/25 06:44:36;;;;;;;4.68;1.05;;;-0.90;99.90;;;;;;4978140;28;20023;-93
2023/11/25 06:47:02;;;;;;;8.70;1.20;;;-0.90;99.90;;;;;;4977740;28;20019;-93
2023/11/25 06:49:28;;;;;;;8.98;1.27;;;-0.80;99.90;;;;;;4978676;28;20033;-93
2023/11/25 06:51:54;;;;;;;10.02;1.08;;;-0.80;99.90;;;;;;4977518;28;20109;-92
2023/11/25 06:54:20;;;;;;;8.07;1.08;;;-0.80;99.90;;;;;;4962757;28;20404;-94
2023/11/25 06:56:47;;;;;;;3.08;0.80;;;-0.80;99.90;;;;;;4977336;28;20018;-95
2023/11/25 06:59:13;;;;;;;5.05;1.17;;;-0.80;99.90;;;;;;4978966;28;20117;-93
2023/11/25 07:01:39;;;;;;;8.15;1.30;;;-0.70;99.90;;;;;;4977990;28;20045;-94
2023/11/25 07:04:05;;;;;;;7.00;1.92;;;-0.70;99.90;;;;;;4978059;28;20034;-93
2023/11/25 07:06:31;;;;;;;3.22;0.90;;;-0.70;99.90;;;;;;4978518;28;20014;-93
2023/11/25 07:09:00;;;;;;;1.65;1.00;;;-0.70;99.90;;;;;;4997838;28;20030;-92
2023/11/25 07:11:27;;;;;;;5.72;0.80;;;-0.80;99.90;;;;;;4981724;28;20026;-95
2023/11/25 07:13:54;;;;;;;3.75;1.02;;;-0.80;99.90;;;;;;4981889;28;20050;-93
2023/11/25 07:16:21;;;;;;;6.13;1.20;;;-0.80;99.90;;;;;;4979871;28;20074;-94
2023/11/25 07:18:49;;;;;;;3.38;1.00;;;-0.80;99.90;;;;;;4980171;28;20027;-94
2023/11/25 07:21:17;;;;;;;6.25;1.27;;;-0.70;99.90;;;;;;4982512;28;20041;-94
2023/11/25 07:23:42;;;;;;;9.10;1.20;;;-0.60;99.90;;;;;;4984464;28;20037;-94
2023/11/25 07:26:12;;;;;;;5.32;1.40;;;-0.50;99.90;;;;;;5005768;28;20022;-93
2023/11/25 07:28:39;;;;;;;6.78;1.50;;;-0.40;99.90;;;;;;4988332;28;20026;-94
2023/11/25 07:31:05;;;;;;;11.50;1.60;;;-0.30;99.90;;;;;;4990098;28;20022;-93
2023/11/25 07:33:31;;;;;;;8.05;1.15;;;-0.20;99.90;;;;;;4989735;28;20081;-93
2023/11/25 07:35:57;;;;;;;5.55;1.35;;;-0.10;99.90;;;;;;4983948;28;20034;-93
2023/11/25 07:38:24;;;;;;;4.88;1.00;;;-0.10;99.90;;;;;;4984506;28;20037;-94
2023/11/25 07:40:50;;;;;;;5.78;1.38;;;-0.20;99.90;;;;;;4982814;28;20034;-93
2023/11/25 07:43:16;;;;;;;9.65;1.20;;;-0.30;99.90;;;;;;4982430;28;20025;-94
2023/11/25 07:45:44;;;;;;;5.97;1.40;;;-0.30;99.90;;;;;;4983890;28;20027;-91
2023/11/25 07:48:10;;;;;;;5.85;1.30;;;-0.40;99.90;;;;;;4993010;28;20078;-93
2023/11/25 07:50:37;;;;;;;4.10;0.90;;;-0.40;99.90;;;;;;5000358;28;20026;-94
2023/11/25 07:53:03;;;;;;;7.43;1.48;;;-0.50;99.90;;;;;;4985831;28;20039;-93
2023/11/25 07:55:29;;;;;;;6.35;1.85;;;-0.60;99.90;;;;;;4989935;28;20129;-92
2023/11/25 07:57:55;;;;;;;12.63;1.00;;;-0.60;99.90;;;;;;4988168;28;20062;-93
2023/11/25 08:00:25;;;;;;;5.65;1.65;;;-0.60;99.90;;;;;;5007757;28;20030;-93
2023/11/25 08:02:55;;;;;;;3.13;0.98;;;-0.70;99.90;;;;;;4994842;28;20094;-96
2023/11/25 08:05:22;;;;;;;6.15;1.10;;;-0.70;99.90;;;;;;4994067;28;20411;-95
2023/11/25 08:07:50;;;;;;;7.45;1.13;;;-0.70;99.90;;;;;;4990966;28;20029;-93
2023/11/25 08:10:16;;;;;;;7.32;1.15;;;-0.70;99.90;;;;;;5014725;28;20059;-94
2023/11/25 08:12:42;;;;;;;7.25;1.55;;;-0.70;99.90;;;;;;4992535;28;20030;-94
2023/11/25 08:15:09;;;;;;;8.38;1.10;;;-0.60;99.90;;;;;;4995923;28;20097;-95
2023/11/25 08:17:36;;;;;;;5.25;1.20;;;-0.60;99.90;;;;;;4999111;28;20029;-94
2023/11/25 08:20:02;;;;;;;5.68;1.13;;;-0.60;99.90;;;;;;4995905;28;20030;-94
2023/11/25 08:22:29;;;;;;;5.93;1.08;;;-0.60;99.90;;;;;;4995150;28;20073;-95
2023/11/25 08:24:57;;;;;;;6.82;1.17;;;-0.50;99.90;;;;;;5028828;28;20090;-94
2023/11/25 08:27:23;;;;;;;6.45;1.88;;;-0.50;99.90;;;;;;4995561;28;20038;-95
2023/11/25 08:29:48;;;;;;;5.78;1.08;;;-0.50;99.90;;;;;;5010986;28;20026;-93
2023/11/25 08:32:14;;;;;;;5.00;2.25;;;-0.40;99.90;;;;;;4995102;28;20050;-96
2023/11/25 08:34:40;;;;;;;6.35;0.80;;;-0.40;99.90;;;;;;5023225;28;20113;-94
2023/11/25 08:37:07;;;;;;;4.88;0.90;;;-0.40;99.90;;;;;;4991714;28;20080;-95
2023/11/25 08:39:33;;;;;;;9.00;1.10;;;-0.40;99.90;;;;;;5001466;28;20026;-94
2023/11/25 08:41:59;;;;;;;5.18;1.45;;;-0.20;99.90;;;;;;4998766;28;20037;-88
2023/11/25 08:44:26;;;;;;;10.38;1.30;;;-0.10;99.90;;;;;;5001913;28;20085;-95
2023/11/25 08:46:53;;;;;;;11.60;1.20;;;0.00;99.90;;;;;;5000643;28;20053;-93
2023/11/25 08:49:21;;;;;;;9.00;1.05;;;0.10;99.90;;;;;;4988490;28;20483;-94
2023/11/25 08:51:49;;;;;;;5.32;1.25;;;0.20;99.90;;;;;;4985666;28;20027;-94
2023/11/25 08:54:17;;;;;;;8.18;2.28;;;0.30;99.90;;;;;;4985930;28;20060;-92
2023/11/25 08:56:47;;;;;;;12.90;3.13;;;0.30;99.90;;;;;;4986342;28;20153;-94
2023/11/25 08:59:17;;;;;;;5.90;1.63;;;0.40;99.90;;;;;;4984925;28;20030;-93
2023/11/25 09:01:44;;;;;;;10.35;1.83;;;0.40;99.90;;;;;;5004779;28;20041;-93
2023/11/25 09:04:13;;;;;;;6.00;1.30;;;0.40;99.90;;;;;;4986862;28;20495;-92
2023/11/25 09:06:39;;;;;;;6.93;1.70;;;0.50;99.90;;;;;;5003194;28;20034;-94
2023/11/25 09:09:09;;;;;;;6.85;1.30;;;0.50;99.90;;;;;;4972383;28;20281;-94
2023/11/25 09:11:36;;;;;;;5.47;1.15;;;0.60;99.90;;;;;;4980627;28;20053;-94
2023/11/25 09:14:06;;;;;;;10.93;1.83;;;0.80;99.90;;;;;;4981356;28;20042;-92
2023/11/25 09:16:32;;;;;;;6.32;1.55;;;1.00;99.90;;;;;;4992033;28;20055;-93
2023/11/25 09:18:57;;;;;;;4.90;1.20;;;1.20;99.90;;;;;;4961539;28;20030;-93
2023/11/25 09:21:24;;;;;;;6.13;1.00;;;1.40;99.90;;;;;;4994207;28;20039;-94
2023/11/25 09:23:50;;;;;;;7.10;0.88;;;1.70;99.90;;;;;;4978170;28;20173;-95
2023/11/25 09:26:16;;;;;;;10.18;2.45;;;1.90;99.90;;;;;;4961806;28;20023;-96
2023/11/25 09:28:41;;;;;;;8.23;1.48;;;2.20;99.90;;;;;;4977951;28;20097;-95
2023/11/25 09:31:07;;;;;;;3.78;0.75;;;2.50;99.90;;;;;;4962470;28;20476;-94
2023/11/25 09:33:33;;;;;;;5.28;0.93;;;2.80;99.90;;;;;;4980841;28;20113;-95
2023/11/25 09:35:59;;;;;;;11.73;1.77;;;3.10;99.90;;;;;;4994807;28;20492;-96
2023/11/25 09:38:26;;;;;;;3.35;0.90;;;3.40;99.90;;;;;;4963255;28;20031;-95
2023/11/25 09:40:52;;;;;;;6.18;1.38;;;3.70;99.90;;;;;;4972105;28;20034;-94
2023/11/25 09:43:21;;;;;;;10.80;1.05;;;4.00;99.90;;;;;;4991924;28;20030;-94
2023/11/25 09:45:49;;;;;;;4.20;0.80;;;4.30;99.90;;;;;;4987885;28;20027;-93
2023/11/25 09:48:14;;;;;;;3.25;0.77;;;4.60;99.90;;;;;;4971765;28;20019;-93
2023/11/25 09:50:40;;;;;;;5.68;1.65;;;4.90;99.90;;;;;;4997185;28;20038;-93
2023/11/25 09:53:25;;;;;;;3.65;0.90;;;5.10;99.90;;;;;;4978672;28;20481;-96
2023/11/25 09:56:17;;;;;;;3.85;0.80;;;5.40;99.90;;;;;;4967596;28;20038;-93
2023/11/25 09:58:42;;;;;;;4.25;1.45;;;5.70;99.90;;;;;;4964047;28;20085;-94
2023/11/25 10:01:12;;;;;;;8.68;2.58;;;5.90;99.90;;;;;;4981006;28;20022;-94
2023/11/25 10:03:45;;;;;;;7.75;3.03;;;6.10;99.90;;;;;;4966749;28;20023;-94
2023/11/25 10:06:11;;;;;;;10.27;2.97;;;6.40;99.90;;;;;;4966232;28;20053;-93
2023/11/25 10:08:37;;;;;;;13.05;3.47;;;6.70;99.90;;;;;;4965598;28;20395;-94
2023/11/25 10:11:08;;;;;;;9.70;2.95;;;6.90;99.90;;;;;;4986199;28;20054;-93
2023/11/25 10:13:35;;;;;;;10.63;2.80;;;7.00;99.90;;;;;;4975051;28;20027;-90
2023/11/25 10:16:02;;;;;;;5.80;2.20;;;7.20;99.90;;;;;;4990842;28;20143;-93
2023/11/25 10:18:29;;;;;;;7.22;2.50;;;7.40;99.90;;;;;;4971874;28;20023;-93
2023/11/25 10:20:58;;;;;;;9.02;3.08;;;7.70;99.90;;;;;;4986205;28;20023;-95
2023/11/25 10:23:25;;;;;;;5.32;2.08;;;8.10;99.90;;;;;;4984813;28;20078;-94
2023/11/25 10:25:54;;;;;;;5.63;1.13;;;8.30;99.90;;;;;;4967171;28;20027;-94
2023/11/25 10:28:24;;;;;;;12.15;3.33;;;8.50;99.90;;;;;;4967514;28;20042;-95
2023/11/25 10:30:56;;;;;;;15.50;3.83;;;8.60;99.90;;;;;;4965673;28;20027;-95
2023/11/25 10:33:24;;;;;;;7.18;1.75;;;8.60;99.90;;;;;;4964623;28;20302;-95
2023/11/25 10:35:53;;;;;;;8.00;1.70;;;8.70;99.90;;;;;;4964891;28;20042;-94
2023/11/25 10:38:22;;;;;;;6.25;1.38;;;8.70;99.90;;;;;;4968247;28;20034;-95
2023/11/25 10:40:51;;;;;;;9.50;1.90;;;8.80;99.90;;;;;;4977977;28;20034;-93
2023/11/25 10:43:20;;;;;;;3.78;0.90;;;8.90;99.90;;;;;;4976546;28;20098;-94
2023/11/25 10:45:46;;;;;;;3.08;1.48;;;9.20;99.90;;;;;;4977991;28;20034;-96
2023/11/25 10:48:12;;;;;;;9.93;2.22;;;9.60;99.90;;;;;;4980908;28;20027;-95
2023/11/25 10:50:44;;;;;;;5.35;2.10;;;9.80;98.80;;;;;;4978439;28;20034;-95
2023/11/25 10:53:15;;;;;;;4.68;2.03;;;9.90;97.50;;;;;;4978442;28;20027;-96
2023/11/25 10:55:43;;;;;;;5.28;1.90;;;10.00;97.00;;;;;;4990283;28;20062;-94
2023/11/25 10:58:11;;;;;;;4.63;1.75;;;10.20;96.60;;;;;;4975358;28;20014;-95
2023/11/25 11:00:38;;;;;;;9.13;2.03;;;10.50;95.30;;;;;;4961920;28;20062;-93
2023/11/25 11:03:11;;;;;;;124.97;34.63;;;10.70;94.40;;;;;;4977793;28;20019;-95
2023/11/25 11:05:56;;;;;;;15.95;4.80;;;10.90;93.50;;;;;;4981909;28;20119;-93
2023/11/25 11:08:25;;;;;;;43.97;12.40;;;11.10;92.50;;;;;;4982860;28;20031;-94
2023/11/25 11:10:59;;;;;;;5.35;1.13;;;11.30;91.50;;;;;;4997581;28;20026;-94
2023/11/25 11:14:10;;;;;;;6.03;1.08;;;11.50;90.60;;;;;;4981948;28;20034;-94
2023/11/25 11:16:39;;;;;;;5.70;1.30;;;11.60;89.60;;;;;;4978893;28;20039;-94
2023/11/25 11:19:08;;;;;;;12.85;2.30;;;11.80;88.10;;;;;;4984326;28;20026;-92
2023/11/25 11:21:38;;;;;;;3.35;0.90;;;11.90;86.70;;;;;;4983888;28;20034;-93
2023/11/25 11:24:12;;;;;;;1.55;0.52;;;12.10;85.30;;;;;;4983389;28;20265;-92
2023/11/25 11:27:07;;;;;;;4.22;1.30;;;12.10;83.80;;;;;;5000326;28;20029;-91
2023/11/25 11:29:49;;;;;;;4.32;1.20;;;12.30;82.60;;;;;;4982908;28;20023;-96
2023/11/25 11:32:20;;;;;;;4.13;1.02;;;12.30;81.60;;;;;;4982152;28;20007;-95
2023/11/25 11:34:46;;;;;;;;;;;12.50;81.10;;;;;;4982016;28;20035;-94
2023/11/25 11:37:12;;;;;;;2.53;0.95;;;12.60;79.90;;;;;;4982045;28;20579;-95
2023/11/25 11:39:51;;;;;;;2.65;0.70;;;12.80;79.80;;;;;;4981005;28;20039;-94
2023/11/25 11:42:27;;;;;;;3.83;0.90;;;12.80;78.10;;;;;;4980192;28;20054;-94
2023/11/25 11:45:11;;;;;;;3.78;0.73;;;12.80;77.50;;;;;;4996234;28;20027;-94
2023/11/25 11:47:51;;;;;;;3.35;0.60;;;13.10;77.10;;;;;;4980102;28;20094;-94
2023/11/25 11:50:19;;;;;;;3.63;0.80;;;13.20;76.10;;;;;;4980805;28;20040;-96
2023/11/25 11:53:00;;;;;;;3.13;0.77;;;13.10;74.70;;;;;;4980926;28;20018;-93
2023/11/25 11:55:40;;;;;;;1.70;0.43;;;12.90;74.10;;;;;;4981670;28;20086;-93
2023/11/25 11:58:13;;;;;;;1.88;0.70;;;12.90;74.00;;;;;;4998736;28;20022;-93
2023/11/25 12:00:41;;;;;;;3.55;1.17;;;13.00;73.60;;;;;;4997890;28;20045;-93
2023/11/25 12:03:08;;;;;;;4.45;0.80;;;13.20;73.80;;;;;;4981964;28;20017;-93
2023/11/25 12:05:35;;;;;;;1.75;0.70;;;13.40;72.90;;;;;;5000515;28;20062;-93
2023/11/25 12:08:01;;;;;;;2.25;0.57;;;13.60;72.10;;;;;;4981197;28;20026;-91
2023/11/25 12:10:27;;;;;;;3.53;1.27;;;13.70;70.70;;;;;;4980551;28;20034;-93
2023/11/25 12:12:53;;;;;;;3.72;0.77;;;13.60;70.10;;;;;;4997220;28;20050;-94
2023/11/25 12:15:19;;;;;;;5.25;1.02;;;13.70;70.20;;;;;;4980592;28;20046;-94
2023/11/25 12:17:46;;;;;;;3.90;0.90;;;13.60;69.50;;;;;;4997986;28;20050;-94
2023/11/25 12:20:13;;;;;;;3.85;0.68;;;13.60;69.50;;;;;;4997189;28;20094;-94
2023/11/25 12:22:43;;;;;;;3.83;0.73;;;13.60;69.50;;;;;;4996594;28;20023;-94
2023/11/25 12:25:29;;;;;;;5.20;1.42;;;13.70;68.90;;;;;;4980754;28;20011;-93
2023/11/25 12:28:08;;;;;;;2.42;1.02;;;13.90;68.90;;;;;;4963981;28;20035;-94
2023/11/25 12:30:38;;;;;;;4.43;1.35;;;14.20;68.50;;;;;;4966118;28;20030;-94
2023/11/25 12:33:05;;;;;;;4.20;1.80;;;14.60;68.10;;;;;;5001972;28;20511;-95
2023/11/25 12:35:36;;;;;;;5.35;1.90;;;15.00;67.20;;;;;;4971522;28;20125;-93
2023/11/25 12:38:05;;;;;;;8.50;2.40;;;15.30;66.20;;;;;;4981976;28;20049;-93
2023/11/25 12:40:32;;;;;;;4.78;0.95;;;15.60;65.40;;;;;;4976935;28;20047;-95
2023/11/25 12:42:58;;;;;;;3.20;1.10;;;15.90;64.20;;;;;;4994345;28;20023;-95
2023/11/25 12:45:40;;;;;;;3.20;0.98;;;16.10;63.20;;;;;;5009610;28;20030;-94
2023/11/25 12:48:09;;;;;;;2.78;1.00;;;16.30;62.40;;;;;;4976832;28;20077;-95
2023/11/25 12:50:55;;;;;;;3.85;1.02;;;16.20;62.00;;;;;;4985220;28;20031;-95